sensor_id;sensor_type;location;lat;lon;timestamp;temperature;humidity
48162;DHT22;33950;48.154;16.316;2023-02-15T00:01:05;6.00;91.10
48162;DHT22;33950;48.154;16.316;2023-02-15T00:03:52;6.00;90.90
48162;DHT22;33950;48.154;16.316;2023-02-15T00:06:38;6.10;91.30
48162;DHT22;33950;48.154;16.316;2023-02-15T00:09:24;6.10;90.90
48162;DHT22;33950;48.154;16.316;2023-02-15T00:12:10;6.10;90.90
48162;DHT22;33950;48.154;16.316;2023-02-15T00:14:57;6.10;90.90
48162;DHT22;33950;48.154;16.316;2023-02-15T00:17:43;6.00;90.90
48162;DHT22;33950;48.154;16.316;2023-02-15T00:20:29;6.10;90.80
48162;DHT22;33950;48.154;16.316;2023-02-15T00:23:15;6.10;90.70
48162;DHT22;33950;48.154;16.316;2023-02-15T00:26:05;6.00;90.70
48162;DHT22;33950;48.154;16.316;2023-02-15T00:28:52;6.00;90.70
48162;DHT22;33950;48.154;16.316;2023-02-15T00:31:39;5.80;90.80
48162;DHT22;33950;48.154;16.316;2023-02-15T00:34:26;5.70;91.20
48162;DHT22;33950;48.154;16.316;2023-02-15T00:37:12;5.70;91.10
48162;DHT22;33950;48.154;16.316;2023-02-15T00:39:59;5.60;91.20
48162;DHT22;33950;48.154;16.316;2023-02-15T00:42:45;5.60;91.20
48162;DHT22;33950;48.154;16.316;2023-02-15T00:45:31;5.50;91.30
48162;DHT22;33950;48.154;16.316;2023-02-15T00:48:19;5.40;91.40
48162;DHT22;33950;48.154;16.316;2023-02-15T00:51:05;5.30;91.40
48162;DHT22;33950;48.154;16.316;2023-02-15T00:53:51;5.20;91.60
48162;DHT22;33950;48.154;16.316;2023-02-15T00:56:37;5.30;91.60
48162;DHT22;33950;48.154;16.316;2023-02-15T00:59:23;5.30;91.50
48162;DHT22;33950;48.154;16.316;2023-02-15T01:02:09;5.40;91.40
48162;DHT22;33950;48.154;16.316;2023-02-15T01:04:57;5.50;91.40
48162;DHT22;33950;48.154;16.316;2023-02-15T01:07:43;5.50;91.30
48162;DHT22;33950;48.154;16.316;2023-02-15T01:10:29;5.50;91.30
48162;DHT22;33950;48.154;16.316;2023-02-15T01:13:16;5.40;91.40
48162;DHT22;33950;48.154;16.316;2023-02-15T01:16:02;5.40;91.40
48162;DHT22;33950;48.154;16.316;2023-02-15T01:18:49;5.40;91.30
48162;DHT22;33950;48.154;16.316;2023-02-15T01:21:36;5.30;91.40
48162;DHT22;33950;48.154;16.316;2023-02-15T01:24:22;5.30;91.50
48162;DHT22;33950;48.154;16.316;2023-02-15T01:27:08;5.20;91.50
48162;DHT22;33950;48.154;16.316;2023-02-15T01:29:55;5.10;91.60
48162;DHT22;33950;48.154;16.316;2023-02-15T01:32:41;5.10;91.70
48162;DHT22;33950;48.154;16.316;2023-02-15T01:35:28;5.00;91.80
48162;DHT22;33950;48.154;16.316;2023-02-15T01:38:15;5.00;91.90
48162;DHT22;33950;48.154;16.316;2023-02-15T01:41:01;5.00;91.90
48162;DHT22;33950;48.154;16.316;2023-02-15T01:47:29;5.50;91.60
48162;DHT22;33950;48.154;16.316;2023-02-15T01:50:20;5.60;91.40
48162;DHT22;33950;48.154;16.316;2023-02-15T01:53:11;5.70;91.20
48162;DHT22;33950;48.154;16.316;2023-02-15T01:56:03;5.70;91.10
48162;DHT22;33950;48.154;16.316;2023-02-15T01:58:52;5.70;90.90
48162;DHT22;33950;48.154;16.316;2023-02-15T02:01:39;5.50;91.00
48162;DHT22;33950;48.154;16.316;2023-02-15T02:04:29;5.50;91.10
48162;DHT22;33950;48.154;16.316;2023-02-15T02:07:19;5.50;91.00
48162;DHT22;33950;48.154;16.316;2023-02-15T02:10:09;5.40;91.20
48162;DHT22;33950;48.154;16.316;2023-02-15T02:12:59;5.30;91.20
48162;DHT22;33950;48.154;16.316;2023-02-15T02:15:52;5.30;91.40
48162;DHT22;33950;48.154;16.316;2023-02-15T02:18:49;5.30;91.40
48162;DHT22;33950;48.154;16.316;2023-02-15T02:25:38;5.20;91.50
48162;DHT22;33950;48.154;16.316;2023-02-15T02:28:53;5.10;91.50
48162;DHT22;33950;48.154;16.316;2023-02-15T02:32:03;5.10;91.60
48162;DHT22;33950;48.154;16.316;2023-02-15T02:35:00;5.30;91.80
48162;DHT22;33950;48.154;16.316;2023-02-15T02:37:54;5.20;91.50
48162;DHT22;33950;48.154;16.316;2023-02-15T02:40:50;5.30;91.70
48162;DHT22;33950;48.154;16.316;2023-02-15T02:43:47;5.50;91.60
48162;DHT22;33950;48.154;16.316;2023-02-15T02:46:40;5.60;91.40
48162;DHT22;33950;48.154;16.316;2023-02-15T02:49:31;5.70;91.30
48162;DHT22;33950;48.154;16.316;2023-02-15T02:52:40;5.60;91.20
48162;DHT22;33950;48.154;16.316;2023-02-15T02:55:30;5.70;91.10
48162;DHT22;33950;48.154;16.316;2023-02-15T02:58:21;5.90;91.00
48162;DHT22;33950;48.154;16.316;2023-02-15T03:01:12;5.90;90.80
48162;DHT22;33950;48.154;16.316;2023-02-15T03:04:02;5.90;90.60
48162;DHT22;33950;48.154;16.316;2023-02-15T03:06:53;5.80;90.70
48162;DHT22;33950;48.154;16.316;2023-02-15T03:09:45;5.60;90.90
48162;DHT22;33950;48.154;16.316;2023-02-15T03:12:35;5.40;91.00
48162;DHT22;33950;48.154;16.316;2023-02-15T03:15:26;5.30;91.20
48162;DHT22;33950;48.154;16.316;2023-02-15T03:18:37;5.10;91.50
48162;DHT22;33950;48.154;16.316;2023-02-15T03:21:30;5.00;91.60
48162;DHT22;33950;48.154;16.316;2023-02-15T03:24:21;5.00;91.60
48162;DHT22;33950;48.154;16.316;2023-02-15T03:27:11;4.90;91.70
48162;DHT22;33950;48.154;16.316;2023-02-15T03:30:00;4.80;91.80
48162;DHT22;33950;48.154;16.316;2023-02-15T03:32:48;4.80;91.80
48162;DHT22;33950;48.154;16.316;2023-02-15T03:35:39;4.80;92.00
48162;DHT22;33950;48.154;16.316;2023-02-15T03:38:35;4.70;92.00
48162;DHT22;33950;48.154;16.316;2023-02-15T03:41:24;4.70;92.00
48162;DHT22;33950;48.154;16.316;2023-02-15T03:44:15;4.70;92.00
48162;DHT22;33950;48.154;16.316;2023-02-15T03:47:06;4.70;92.10
48162;DHT22;33950;48.154;16.316;2023-02-15T03:49:57;4.70;92.00
48162;DHT22;33950;48.154;16.316;2023-02-15T03:52:45;4.80;92.00
48162;DHT22;33950;48.154;16.316;2023-02-15T03:55:33;4.90;91.90
48162;DHT22;33950;48.154;16.316;2023-02-15T03:58:19;4.80;91.90
48162;DHT22;33950;48.154;16.316;2023-02-15T04:01:29;4.80;91.90
48162;DHT22;33950;48.154;16.316;2023-02-15T04:04:36;4.90;91.80
48162;DHT22;33950;48.154;16.316;2023-02-15T04:07:23;4.90;91.90
48162;DHT22;33950;48.154;16.316;2023-02-15T04:10:09;4.80;92.10
48162;DHT22;33950;48.154;16.316;2023-02-15T04:13:14;4.80;92.00
48162;DHT22;33950;48.154;16.316;2023-02-15T04:16:00;4.80;92.10
48162;DHT22;33950;48.154;16.316;2023-02-15T04:18:50;4.90;92.10
48162;DHT22;33950;48.154;16.316;2023-02-15T04:21:55;5.00;92.00
48162;DHT22;33950;48.154;16.316;2023-02-15T04:25:00;5.10;92.00
48162;DHT22;33950;48.154;16.316;2023-02-15T04:27:56;5.10;91.90
48162;DHT22;33950;48.154;16.316;2023-02-15T04:30:42;5.20;91.90
48162;DHT22;33950;48.154;16.316;2023-02-15T04:33:29;5.30;91.80
48162;DHT22;33950;48.154;16.316;2023-02-15T04:36:16;5.40;91.70
48162;DHT22;33950;48.154;16.316;2023-02-15T04:39:02;5.40;91.60
48162;DHT22;33950;48.154;16.316;2023-02-15T04:41:49;5.30;91.50
48162;DHT22;33950;48.154;16.316;2023-02-15T04:44:35;5.30;91.40
48162;DHT22;33950;48.154;16.316;2023-02-15T04:47:21;5.20;91.60
48162;DHT22;33950;48.154;16.316;2023-02-15T04:50:07;5.30;91.60
48162;DHT22;33950;48.154;16.316;2023-02-15T04:52:55;5.30;91.50
48162;DHT22;33950;48.154;16.316;2023-02-15T04:55:41;5.30;91.60
48162;DHT22;33950;48.154;16.316;2023-02-15T04:58:27;5.30;91.60
48162;DHT22;33950;48.154;16.316;2023-02-15T05:01:13;5.20;91.60
48162;DHT22;33950;48.154;16.316;2023-02-15T05:04:00;5.20;91.70
48162;DHT22;33950;48.154;16.316;2023-02-15T05:06:46;5.20;91.70
48162;DHT22;33950;48.154;16.316;2023-02-15T05:09:33;5.20;91.60
48162;DHT22;33950;48.154;16.316;2023-02-15T05:12:19;5.20;91.60
48162;DHT22;33950;48.154;16.316;2023-02-15T05:15:06;5.20;91.60
48162;DHT22;33950;48.154;16.316;2023-02-15T05:17:52;5.30;91.60
48162;DHT22;33950;48.154;16.316;2023-02-15T05:20:38;5.40;91.40
48162;DHT22;33950;48.154;16.316;2023-02-15T05:23:24;5.50;91.40
48162;DHT22;33950;48.154;16.316;2023-02-15T05:26:12;5.50;91.40
48162;DHT22;33950;48.154;16.316;2023-02-15T05:29:20;5.50;91.30
48162;DHT22;33950;48.154;16.316;2023-02-15T05:32:06;5.60;91.40
48162;DHT22;33950;48.154;16.316;2023-02-15T05:34:52;5.70;91.20
48162;DHT22;33950;48.154;16.316;2023-02-15T05:37:38;5.60;91.40
48162;DHT22;33950;48.154;16.316;2023-02-15T05:40:24;5.60;91.20
48162;DHT22;33950;48.154;16.316;2023-02-15T05:43:12;5.60;91.30
48162;DHT22;33950;48.154;16.316;2023-02-15T05:45:58;5.70;91.40
48162;DHT22;33950;48.154;16.316;2023-02-15T05:48:44;5.70;91.30
48162;DHT22;33950;48.154;16.316;2023-02-15T05:51:30;5.60;91.40
48162;DHT22;33950;48.154;16.316;2023-02-15T05:54:16;5.60;91.50
48162;DHT22;33950;48.154;16.316;2023-02-15T05:57:03;5.60;91.70
48162;DHT22;33950;48.154;16.316;2023-02-15T05:59:50;5.60;91.80
48162;DHT22;33950;48.154;16.316;2023-02-15T06:02:37;5.60;91.70
48162;DHT22;33950;48.154;16.316;2023-02-15T06:05:23;5.60;91.70
48162;DHT22;33950;48.154;16.316;2023-02-15T06:08:09;5.70;91.70
48162;DHT22;33950;48.154;16.316;2023-02-15T06:10:55;5.70;91.50
48162;DHT22;33950;48.154;16.316;2023-02-15T06:13:41;5.70;91.40
48162;DHT22;33950;48.154;16.316;2023-02-15T06:16:29;5.50;91.40
48162;DHT22;33950;48.154;16.316;2023-02-15T06:19:15;5.40;91.60
48162;DHT22;33950;48.154;16.316;2023-02-15T06:22:01;5.30;91.70
48162;DHT22;33950;48.154;16.316;2023-02-15T06:24:47;5.40;91.80
48162;DHT22;33950;48.154;16.316;2023-02-15T06:27:33;5.50;92.10
48162;DHT22;33950;48.154;16.316;2023-02-15T06:30:20;5.60;91.80
48162;DHT22;33950;48.154;16.316;2023-02-15T06:33:07;5.70;91.80
48162;DHT22;33950;48.154;16.316;2023-02-15T06:35:53;5.60;91.70
48162;DHT22;33950;48.154;16.316;2023-02-15T06:38:39;5.70;91.70
48162;DHT22;33950;48.154;16.316;2023-02-15T06:41:25;5.80;92.00
48162;DHT22;33950;48.154;16.316;2023-02-15T06:44:11;5.80;91.60
48162;DHT22;33950;48.154;16.316;2023-02-15T06:46:58;5.90;91.70
48162;DHT22;33950;48.154;16.316;2023-02-15T06:49:45;5.80;91.60
48162;DHT22;33950;48.154;16.316;2023-02-15T06:52:31;5.70;91.70
48162;DHT22;33950;48.154;16.316;2023-02-15T06:55:17;5.80;91.60
48162;DHT22;33950;48.154;16.316;2023-02-15T06:58:03;5.80;91.70
48162;DHT22;33950;48.154;16.316;2023-02-15T07:00:51;5.90;91.60
48162;DHT22;33950;48.154;16.316;2023-02-15T07:03:37;5.90;91.50
48162;DHT22;33950;48.154;16.316;2023-02-15T07:06:25;5.70;91.60
48162;DHT22;33950;48.154;16.316;2023-02-15T07:09:13;5.70;91.70
48162;DHT22;33950;48.154;16.316;2023-02-15T07:11:59;5.70;91.80
48162;DHT22;33950;48.154;16.316;2023-02-15T07:15:04;5.70;91.80
48162;DHT22;33950;48.154;16.316;2023-02-15T07:17:52;5.80;91.70
48162;DHT22;33950;48.154;16.316;2023-02-15T07:20:38;5.70;91.70
48162;DHT22;33950;48.154;16.316;2023-02-15T07:23:28;5.70;91.70
48162;DHT22;33950;48.154;16.316;2023-02-15T07:26:14;5.60;91.70
48162;DHT22;33950;48.154;16.316;2023-02-15T07:29:00;5.70;91.70
48162;DHT22;33950;48.154;16.316;2023-02-15T07:31:46;5.60;91.80
48162;DHT22;33950;48.154;16.316;2023-02-15T07:34:32;5.60;91.80
48162;DHT22;33950;48.154;16.316;2023-02-15T07:37:19;5.60;91.80
48162;DHT22;33950;48.154;16.316;2023-02-15T07:40:07;5.60;91.80
48162;DHT22;33950;48.154;16.316;2023-02-15T07:42:53;5.40;91.90
48162;DHT22;33950;48.154;16.316;2023-02-15T07:45:40;5.40;92.00
48162;DHT22;33950;48.154;16.316;2023-02-15T07:48:26;5.50;92.10
48162;DHT22;33950;48.154;16.316;2023-02-15T07:51:14;5.50;92.20
48162;DHT22;33950;48.154;16.316;2023-02-15T07:54:00;5.60;92.00
48162;DHT22;33950;48.154;16.316;2023-02-15T07:56:47;5.50;92.00
48162;DHT22;33950;48.154;16.316;2023-02-15T07:59:33;5.50;92.10
48162;DHT22;33950;48.154;16.316;2023-02-15T08:02:19;5.40;92.10
48162;DHT22;33950;48.154;16.316;2023-02-15T08:05:06;5.40;92.20
48162;DHT22;33950;48.154;16.316;2023-02-15T08:07:52;5.40;92.30
48162;DHT22;33950;48.154;16.316;2023-02-15T08:10:38;5.40;92.30
48162;DHT22;33950;48.154;16.316;2023-02-15T08:13:59;5.40;92.20
48162;DHT22;33950;48.154;16.316;2023-02-15T08:16:48;5.50;92.10
48162;DHT22;33950;48.154;16.316;2023-02-15T08:19:34;5.40;92.20
48162;DHT22;33950;48.154;16.316;2023-02-15T08:22:21;5.40;92.30
48162;DHT22;33950;48.154;16.316;2023-02-15T08:25:07;5.50;92.30
48162;DHT22;33950;48.154;16.316;2023-02-15T08:27:53;5.50;92.10
48162;DHT22;33950;48.154;16.316;2023-02-15T08:30:41;5.50;92.20
48162;DHT22;33950;48.154;16.316;2023-02-15T08:33:27;5.60;92.10
48162;DHT22;33950;48.154;16.316;2023-02-15T08:36:15;5.80;92.10
48162;DHT22;33950;48.154;16.316;2023-02-15T08:39:04;5.80;91.90
48162;DHT22;33950;48.154;16.316;2023-02-15T08:41:51;5.90;91.90
48162;DHT22;33950;48.154;16.316;2023-02-15T08:44:37;5.90;91.80
48162;DHT22;33950;48.154;16.316;2023-02-15T08:47:24;5.90;91.70
48162;DHT22;33950;48.154;16.316;2023-02-15T08:50:10;5.80;91.70
48162;DHT22;33950;48.154;16.316;2023-02-15T08:52:56;5.70;91.80
48162;DHT22;33950;48.154;16.316;2023-02-15T08:55:42;5.60;92.10
48162;DHT22;33950;48.154;16.316;2023-02-15T08:58:30;5.60;92.20
48162;DHT22;33950;48.154;16.316;2023-02-15T09:01:19;5.50;92.10
48162;DHT22;33950;48.154;16.316;2023-02-15T09:04:10;5.50;92.10
48162;DHT22;33950;48.154;16.316;2023-02-15T09:06:56;5.50;92.20
48162;DHT22;33950;48.154;16.316;2023-02-15T09:09:42;5.50;92.20
48162;DHT22;33950;48.154;16.316;2023-02-15T09:12:28;5.70;92.20
48162;DHT22;33950;48.154;16.316;2023-02-15T09:15:14;5.60;91.90
48162;DHT22;33950;48.154;16.316;2023-02-15T09:18:00;5.60;92.00
48162;DHT22;33950;48.154;16.316;2023-02-15T09:20:53;5.70;92.00
48162;DHT22;33950;48.154;16.316;2023-02-15T09:23:39;5.80;92.30
48162;DHT22;33950;48.154;16.316;2023-02-15T09:26:27;5.80;91.90
48162;DHT22;33950;48.154;16.316;2023-02-15T09:29:15;5.80;91.90
48162;DHT22;33950;48.154;16.316;2023-02-15T09:32:02;5.90;91.90
48162;DHT22;33950;48.154;16.316;2023-02-15T09:34:49;5.90;91.80
48162;DHT22;33950;48.154;16.316;2023-02-15T09:37:36;5.90;91.80
48162;DHT22;33950;48.154;16.316;2023-02-15T09:40:22;5.80;91.70
48162;DHT22;33950;48.154;16.316;2023-02-15T09:43:19;5.80;91.80
48162;DHT22;33950;48.154;16.316;2023-02-15T09:46:37;5.80;91.80
48162;DHT22;33950;48.154;16.316;2023-02-15T09:49:32;5.90;91.80
48162;DHT22;33950;48.154;16.316;2023-02-15T09:52:33;6.00;91.80
48162;DHT22;33950;48.154;16.316;2023-02-15T09:55:37;6.10;91.70
48162;DHT22;33950;48.154;16.316;2023-02-15T09:58:34;6.20;91.50
48162;DHT22;33950;48.154;16.316;2023-02-15T10:01:29;6.30;91.50
48162;DHT22;33950;48.154;16.316;2023-02-15T10:04:42;6.40;91.10
48162;DHT22;33950;48.154;16.316;2023-02-15T10:07:45;6.40;91.20
48162;DHT22;33950;48.154;16.316;2023-02-15T10:10:43;6.50;91.10
48162;DHT22;33950;48.154;16.316;2023-02-15T10:13:37;6.50;91.00
48162;DHT22;33950;48.154;16.316;2023-02-15T10:16:34;6.40;91.20
48162;DHT22;33950;48.154;16.316;2023-02-15T10:19:28;6.40;91.00
48162;DHT22;33950;48.154;16.316;2023-02-15T10:22:24;6.30;90.90
48162;DHT22;33950;48.154;16.316;2023-02-15T10:25:28;6.30;91.10
48162;DHT22;33950;48.154;16.316;2023-02-15T10:28:21;6.50;91.20
48162;DHT22;33950;48.154;16.316;2023-02-15T10:31:15;6.40;90.90
48162;DHT22;33950;48.154;16.316;2023-02-15T10:34:22;6.40;91.10
48162;DHT22;33950;48.154;16.316;2023-02-15T10:40:28;6.20;90.80
48162;DHT22;33950;48.154;16.316;2023-02-15T10:43:33;6.30;91.10
48162;DHT22;33950;48.154;16.316;2023-02-15T10:46:52;6.30;91.20
48162;DHT22;33950;48.154;16.316;2023-02-15T10:50:00;6.30;91.20
48162;DHT22;33950;48.154;16.316;2023-02-15T10:52:59;6.40;91.30
48162;DHT22;33950;48.154;16.316;2023-02-15T10:55:55;6.20;91.30
48162;DHT22;33950;48.154;16.316;2023-02-15T10:59:00;6.10;91.60
48162;DHT22;33950;48.154;16.316;2023-02-15T11:01:53;6.20;91.60
48162;DHT22;33950;48.154;16.316;2023-02-15T11:04:47;6.30;91.70
48162;DHT22;33950;48.154;16.316;2023-02-15T11:07:38;6.40;91.60
48162;DHT22;33950;48.154;16.316;2023-02-15T11:10:31;6.40;91.40
48162;DHT22;33950;48.154;16.316;2023-02-15T11:13:22;6.50;91.40
48162;DHT22;33950;48.154;16.316;2023-02-15T11:16:14;6.50;91.50
48162;DHT22;33950;48.154;16.316;2023-02-15T11:19:06;6.40;91.50
48162;DHT22;33950;48.154;16.316;2023-02-15T11:21:57;6.40;91.40
48162;DHT22;33950;48.154;16.316;2023-02-15T11:24:45;6.60;91.50
48162;DHT22;33950;48.154;16.316;2023-02-15T11:27:32;6.60;91.30
48162;DHT22;33950;48.154;16.316;2023-02-15T11:30:21;6.60;91.40
48162;DHT22;33950;48.154;16.316;2023-02-15T11:33:15;6.60;91.20
48162;DHT22;33950;48.154;16.316;2023-02-15T11:36:08;6.50;91.40
48162;DHT22;33950;48.154;16.316;2023-02-15T11:38:59;6.50;91.50
48162;DHT22;33950;48.154;16.316;2023-02-15T11:41:50;6.40;91.50
48162;DHT22;33950;48.154;16.316;2023-02-15T11:44:43;6.50;91.40
48162;DHT22;33950;48.154;16.316;2023-02-15T11:47:30;6.50;91.60
48162;DHT22;33950;48.154;16.316;2023-02-15T11:50:23;6.50;91.40
48162;DHT22;33950;48.154;16.316;2023-02-15T11:53:11;6.50;91.40
48162;DHT22;33950;48.154;16.316;2023-02-15T11:56:01;6.40;91.60
48162;DHT22;33950;48.154;16.316;2023-02-15T11:58:53;6.40;91.80
48162;DHT22;33950;48.154;16.316;2023-02-15T12:01:43;6.40;91.80
48162;DHT22;33950;48.154;16.316;2023-02-15T12:04:31;6.50;91.70
48162;DHT22;33950;48.154;16.316;2023-02-15T12:07:24;6.40;91.70
48162;DHT22;33950;48.154;16.316;2023-02-15T12:10:18;6.40;91.80
48162;DHT22;33950;48.154;16.316;2023-02-15T12:13:10;6.60;91.50
48162;DHT22;33950;48.154;16.316;2023-02-15T12:15:57;6.70;91.50
48162;DHT22;33950;48.154;16.316;2023-02-15T12:18:48;6.70;91.70
48162;DHT22;33950;48.154;16.316;2023-02-15T12:21:40;6.80;91.50
48162;DHT22;33950;48.154;16.316;2023-02-15T12:24:31;7.00;91.40
48162;DHT22;33950;48.154;16.316;2023-02-15T12:27:19;6.90;91.30
48162;DHT22;33950;48.154;16.316;2023-02-15T12:30:16;6.80;91.10
48162;DHT22;33950;48.154;16.316;2023-02-15T12:33:13;6.70;91.30
48162;DHT22;33950;48.154;16.316;2023-02-15T12:36:06;6.80;91.40
48162;DHT22;33950;48.154;16.316;2023-02-15T12:39:18;6.90;91.20
48162;DHT22;33950;48.154;16.316;2023-02-15T12:42:14;7.10;91.30
48162;DHT22;33950;48.154;16.316;2023-02-15T12:45:03;7.10;91.20
48162;DHT22;33950;48.154;16.316;2023-02-15T12:48:08;7.30;91.00
48162;DHT22;33950;48.154;16.316;2023-02-15T12:51:07;7.40;90.90
48162;DHT22;33950;48.154;16.316;2023-02-15T12:53:54;7.50;90.60
48162;DHT22;33950;48.154;16.316;2023-02-15T12:56:40;7.60;90.40
48162;DHT22;33950;48.154;16.316;2023-02-15T12:59:27;7.70;90.40
48162;DHT22;33950;48.154;16.316;2023-02-15T13:02:22;7.50;90.50
48162;DHT22;33950;48.154;16.316;2023-02-15T13:05:18;7.60;90.70
48162;DHT22;33950;48.154;16.316;2023-02-15T13:08:10;7.60;90.50
48162;DHT22;33950;48.154;16.316;2023-02-15T13:10:59;7.50;90.50
48162;DHT22;33950;48.154;16.316;2023-02-15T13:13:52;7.50;90.60
48162;DHT22;33950;48.154;16.316;2023-02-15T13:16:41;7.50;90.60
48162;DHT22;33950;48.154;16.316;2023-02-15T13:19:33;7.60;90.50
48162;DHT22;33950;48.154;16.316;2023-02-15T13:22:22;7.80;90.50
48162;DHT22;33950;48.154;16.316;2023-02-15T13:25:14;7.80;90.20
48162;DHT22;33950;48.154;16.316;2023-02-15T13:28:04;7.80;90.40
48162;DHT22;33950;48.154;16.316;2023-02-15T13:30:51;7.80;90.20
48162;DHT22;33950;48.154;16.316;2023-02-15T13:33:43;8.00;90.20
48162;DHT22;33950;48.154;16.316;2023-02-15T13:36:36;8.10;90.00
48162;DHT22;33950;48.154;16.316;2023-02-15T13:39:31;8.30;89.80
48162;DHT22;33950;48.154;16.316;2023-02-15T13:42:24;8.80;90.10
48162;DHT22;33950;48.154;16.316;2023-02-15T13:45:27;9.10;88.40
48162;DHT22;33950;48.154;16.316;2023-02-15T13:48:24;9.50;87.70
48162;DHT22;33950;48.154;16.316;2023-02-15T13:51:21;9.90;86.50
48162;DHT22;33950;48.154;16.316;2023-02-15T13:54:28;10.10;86.00
48162;DHT22;33950;48.154;16.316;2023-02-15T13:57:36;10.30;85.00
48162;DHT22;33950;48.154;16.316;2023-02-15T14:00:30;10.30;84.70
48162;DHT22;33950;48.154;16.316;2023-02-15T14:03:52;10.50;84.60
48162;DHT22;33950;48.154;16.316;2023-02-15T14:07:04;10.40;84.50
48162;DHT22;33950;48.154;16.316;2023-02-15T14:10:02;10.60;84.50
48162;DHT22;33950;48.154;16.316;2023-02-15T14:16:08;10.70;83.50
48162;DHT22;33950;48.154;16.316;2023-02-15T14:19:05;10.70;83.20
48162;DHT22;33950;48.154;16.316;2023-02-15T14:22:00;10.50;83.30
48162;DHT22;33950;48.154;16.316;2023-02-15T14:28:05;9.90;84.30
48162;DHT22;33950;48.154;16.316;2023-02-15T14:30:54;9.50;84.70
48162;DHT22;33950;48.154;16.316;2023-02-15T14:33:43;9.20;86.00
48162;DHT22;33950;48.154;16.316;2023-02-15T14:36:33;9.20;85.80
48162;DHT22;33950;48.154;16.316;2023-02-15T14:39:29;9.10;85.90
48162;DHT22;33950;48.154;16.316;2023-02-15T14:42:42;9.00;86.20
48162;DHT22;33950;48.154;16.316;2023-02-15T14:45:34;8.90;86.20
48162;DHT22;33950;48.154;16.316;2023-02-15T14:48:26;8.70;86.80
48162;DHT22;33950;48.154;16.316;2023-02-15T14:54:59;8.60;87.40
48162;DHT22;33950;48.154;16.316;2023-02-15T14:57:56;8.50;87.20
48162;DHT22;33950;48.154;16.316;2023-02-15T15:00:44;8.50;87.50
48162;DHT22;33950;48.154;16.316;2023-02-15T15:03:30;8.40;87.60
48162;DHT22;33950;48.154;16.316;2023-02-15T15:06:25;8.40;88.00
48162;DHT22;33950;48.154;16.316;2023-02-15T15:09:18;8.30;88.30
48162;DHT22;33950;48.154;16.316;2023-02-15T15:12:37;8.40;88.50
48162;DHT22;33950;48.154;16.316;2023-02-15T15:15:43;8.40;88.60
48162;DHT22;33950;48.154;16.316;2023-02-15T15:18:44;8.30;88.70
48162;DHT22;33950;48.154;16.316;2023-02-15T15:21:55;8.30;89.10
48162;DHT22;33950;48.154;16.316;2023-02-15T15:24:50;8.20;89.30
48162;DHT22;33950;48.154;16.316;2023-02-15T15:27:44;8.10;89.40
48162;DHT22;33950;48.154;16.316;2023-02-15T15:31:00;8.10;89.60
48162;DHT22;33950;48.154;16.316;2023-02-15T15:37:42;8.10;90.00
48162;DHT22;33950;48.154;16.316;2023-02-15T15:44:28;8.00;90.10
48162;DHT22;33950;48.154;16.316;2023-02-15T15:47:29;8.00;90.10
48162;DHT22;33950;48.154;16.316;2023-02-15T15:50:19;8.00;90.10
48162;DHT22;33950;48.154;16.316;2023-02-15T15:53:06;7.90;90.10
48162;DHT22;33950;48.154;16.316;2023-02-15T15:56:05;7.90;90.20
48162;DHT22;33950;48.154;16.316;2023-02-15T15:58:55;7.90;90.20
48162;DHT22;33950;48.154;16.316;2023-02-15T16:01:45;7.80;90.20
48162;DHT22;33950;48.154;16.316;2023-02-15T16:04:33;7.70;90.30
48162;DHT22;33950;48.154;16.316;2023-02-15T16:07:24;7.50;90.40
48162;DHT22;33950;48.154;16.316;2023-02-15T16:10:21;7.60;90.50
48162;DHT22;33950;48.154;16.316;2023-02-15T16:13:07;7.60;90.40
48162;DHT22;33950;48.154;16.316;2023-02-15T16:15:54;7.60;90.50
48162;DHT22;33950;48.154;16.316;2023-02-15T16:18:42;7.50;90.60
48162;DHT22;33950;48.154;16.316;2023-02-15T16:21:31;7.40;90.60
48162;DHT22;33950;48.154;16.316;2023-02-15T16:24:26;7.50;90.60
48162;DHT22;33950;48.154;16.316;2023-02-15T16:27:33;7.40;90.60
48162;DHT22;33950;48.154;16.316;2023-02-15T16:30:26;7.40;90.70
48162;DHT22;33950;48.154;16.316;2023-02-15T16:33:15;7.20;90.80
48162;DHT22;33950;48.154;16.316;2023-02-15T16:36:04;7.10;90.90
48162;DHT22;33950;48.154;16.316;2023-02-15T16:39:17;7.00;91.10
48162;DHT22;33950;48.154;16.316;2023-02-15T16:42:04;7.00;91.20
48162;DHT22;33950;48.154;16.316;2023-02-15T16:44:53;6.90;91.40
48162;DHT22;33950;48.154;16.316;2023-02-15T16:47:43;6.90;91.40
48162;DHT22;33950;48.154;16.316;2023-02-15T16:50:32;6.80;91.50
48162;DHT22;33950;48.154;16.316;2023-02-15T16:53:23;6.70;91.70
48162;DHT22;33950;48.154;16.316;2023-02-15T16:56:10;6.60;91.80
48162;DHT22;33950;48.154;16.316;2023-02-15T16:58:57;6.60;91.90
48162;DHT22;33950;48.154;16.316;2023-02-15T17:01:44;6.60;92.00
48162;DHT22;33950;48.154;16.316;2023-02-15T17:04:31;6.60;92.00
48162;DHT22;33950;48.154;16.316;2023-02-15T17:07:19;6.60;92.00
48162;DHT22;33950;48.154;16.316;2023-02-15T17:10:26;6.60;92.00
48162;DHT22;33950;48.154;16.316;2023-02-15T17:13:14;6.50;92.10
48162;DHT22;33950;48.154;16.316;2023-02-15T17:16:27;6.60;92.10
48162;DHT22;33950;48.154;16.316;2023-02-15T17:19:16;6.50;92.20
48162;DHT22;33950;48.154;16.316;2023-02-15T17:22:04;6.40;92.30
48162;DHT22;33950;48.154;16.316;2023-02-15T17:24:58;6.30;92.70
48162;DHT22;33950;48.154;16.316;2023-02-15T17:27:50;6.20;92.60
48162;DHT22;33950;48.154;16.316;2023-02-15T17:30:37;6.10;92.70
48162;DHT22;33950;48.154;16.316;2023-02-15T17:33:26;6.10;92.80
48162;DHT22;33950;48.154;16.316;2023-02-15T17:36:21;6.10;92.80
48162;DHT22;33950;48.154;16.316;2023-02-15T17:39:20;6.10;92.90
48162;DHT22;33950;48.154;16.316;2023-02-15T17:42:07;6.20;92.90
48162;DHT22;33950;48.154;16.316;2023-02-15T17:44:55;6.20;92.80
48162;DHT22;33950;48.154;16.316;2023-02-15T17:47:42;6.10;92.90
48162;DHT22;33950;48.154;16.316;2023-02-15T17:50:28;6.10;92.90
48162;DHT22;33950;48.154;16.316;2023-02-15T17:53:15;6.10;92.90
48162;DHT22;33950;48.154;16.316;2023-02-15T17:56:02;6.10;92.90
48162;DHT22;33950;48.154;16.316;2023-02-15T17:58:55;6.00;92.90
48162;DHT22;33950;48.154;16.316;2023-02-15T18:01:46;6.00;93.00
48162;DHT22;33950;48.154;16.316;2023-02-15T18:04:52;6.00;93.00
48162;DHT22;33950;48.154;16.316;2023-02-15T18:07:57;6.00;93.00
48162;DHT22;33950;48.154;16.316;2023-02-15T18:11:02;6.10;93.00
48162;DHT22;33950;48.154;16.316;2023-02-15T18:14:08;6.10;93.00
48162;DHT22;33950;48.154;16.316;2023-02-15T18:16:56;6.10;92.90
48162;DHT22;33950;48.154;16.316;2023-02-15T18:19:43;6.10;92.90
48162;DHT22;33950;48.154;16.316;2023-02-15T18:22:30;6.20;92.90
48162;DHT22;33950;48.154;16.316;2023-02-15T18:25:19;6.10;92.90
48162;DHT22;33950;48.154;16.316;2023-02-15T18:28:06;6.10;93.10
48162;DHT22;33950;48.154;16.316;2023-02-15T18:30:52;6.00;93.00